Time;durP1;ratioP1;P1;durP2;ratioP2;P2;SDS_P1;SDS_P2;PMS_P1;PMS_P2;Temp;Humidity;BMP_temperature;BMP_pressure;BME280_temperature;BME280_humidity;BME280_pressure;Samples;Min_cycle;Max_cycle;Signal;HPM_P1;HPM_P2
2023/10/25 00:01:24;;;;;;;12.23;10.97;;;;;;;13.58;81.56;92420.88;5050178;28;20189;-76
2023/10/25 00:03:49;;;;;;;11.20;10.23;;;;;;;13.76;81.16;92430.38;5049657;28;20212;-75
2023/10/25 00:06:15;;;;;;;10.73;9.93;;;;;;;13.72;81.65;92426.81;5050749;28;20274;-75
2023/10/25 00:08:40;;;;;;;14.33;11.03;;;;;;;13.61;81.67;92409.78;5049808;28;20217;-75
2023/10/25 00:11:09;;;;;;;13.57;9.63;;;;;;;13.61;81.14;92409.00;5050705;28;20209;-75
2023/10/25 00:13:35;;;;;;;13.07;10.53;;;;;;;13.74;80.23;92406.28;5049683;28;20222;-75
2023/10/25 00:16:01;;;;;;;15.73;10.57;;;;;;;13.85;79.89;92404.94;5050231;28;20190;-75
2023/10/25 00:18:27;;;;;;;12.23;10.97;;;;;;;13.51;82.54;92396.16;5045402;28;20239;-75
2023/10/25 00:20:53;;;;;;;13.70;10.17;;;;;;;13.49;81.98;92374.69;5044720;28;20279;-76
2023/10/25 00:23:19;;;;;;;12.10;11.03;;;;;;;13.61;81.19;92396.66;5049688;28;20260;-75
2023/10/25 00:25:49;;;;;;;11.77;10.63;;;;;;;13.67;81.19;92398.09;5049648;28;20198;-75
2023/10/25 00:28:15;;;;;;;14.97;10.37;;;;;;;13.64;80.95;92382.94;5049621;28;20226;-75
2023/10/25 00:30:40;;;;;;;16.73;11.20;;;;;;;13.72;80.65;92400.59;5050100;28;20212;-75
2023/10/25 00:33:06;;;;;;;12.37;10.70;;;;;;;13.86;80.35;92403.88;5049394;28;20218;-75
2023/10/25 00:35:31;;;;;;;11.33;10.37;;;;;;;13.62;80.45;92395.59;5050078;28;20194;-75
2023/10/25 00:37:57;;;;;;;16.83;11.27;;;;;;;13.71;80.17;92377.28;5047314;28;20249;-75
2023/10/25 00:40:23;;;;;;;13.27;10.23;;;;;;;13.83;80.60;92396.63;5049835;28;20189;-75
2023/10/25 00:42:48;;;;;;;14.67;10.60;;;;;;;13.82;80.45;92384.56;5049606;28;20190;-75
2023/10/25 00:45:14;;;;;;;11.93;10.50;;;;;;;13.80;80.84;92360.50;5049136;28;20221;-75
2023/10/25 00:47:41;;;;;;;13.07;11.80;;;;;;;13.67;81.40;92366.59;5049405;28;20197;-75
2023/10/25 00:50:08;;;;;;;12.40;11.07;;;;;;;13.81;81.37;92366.50;5048816;28;20206;-75
2023/10/25 00:52:33;;;;;;;17.33;11.70;;;;;;;13.82;81.43;92368.81;5048543;28;20178;-75
2023/10/25 00:54:59;;;;;;;17.20;11.23;;;;;;;13.79;81.97;92381.78;5022222;28;20227;-75
2023/10/25 00:57:24;;;;;;;13.63;12.17;;;;;;;13.78;81.76;92393.34;5013525;28;20202;-75
2023/10/25 00:59:51;;;;;;;17.17;11.13;;;;;;;13.57;82.12;92414.06;5041807;28;20230;-75
2023/10/25 01:02:17;;;;;;;12.97;11.27;;;;;;;13.56;81.34;92415.16;5081861;28;20177;-75
2023/10/25 01:04:42;;;;;;;13.23;10.17;;;;;;;13.76;81.02;92401.50;5032061;28;20290;-75
2023/10/25 01:07:08;;;;;;;11.27;10.23;;;;;;;13.70;80.48;92373.88;5029806;28;20215;-75
2023/10/25 01:09:33;;;;;;;12.70;11.67;;;;;;;13.86;80.91;92367.16;5029107;28;20225;-75
2023/10/25 01:11:59;;;;;;;14.13;12.80;;;;;;;13.80;80.92;92354.47;5029856;28;20182;-75
2023/10/25 01:14:28;;;;;;;13.07;11.10;;;;;;;13.87;80.47;92349.53;5028756;28;20233;-75
2023/10/25 01:16:53;;;;;;;12.57;11.17;;;;;;;13.82;80.88;92339.94;5029537;28;20178;-75
2023/10/25 01:19:18;;;;;;;17.47;11.00;;;;;;;13.96;80.33;92358.97;5028847;28;20322;-75
2023/10/25 01:21:44;;;;;;;15.77;11.50;;;;;;;13.77;81.31;92366.34;5028398;28;20187;-75
2023/10/25 01:24:10;;;;;;;13.97;10.70;;;;;;;13.96;79.73;92358.22;5028950;28;20229;-75
2023/10/25 01:26:36;;;;;;;12.67;11.43;;;;;;;13.96;80.21;92363.47;5030770;28;20220;-75
2023/10/25 01:29:02;;;;;;;14.23;11.33;;;;;;;13.69;81.36;92348.72;5039976;28;20241;-75
2023/10/25 01:31:27;;;;;;;19.20;11.13;;;;;;;13.66;81.51;92349.31;5047648;28;20190;-75
2023/10/25 01:33:53;;;;;;;11.83;10.63;;;;;;;13.74;81.36;92351.19;5048426;28;20232;-75
2023/10/25 01:36:18;;;;;;;13.43;11.17;;;;;;;13.67;81.42;92361.34;5049052;28;20190;-75
2023/10/25 01:38:44;;;;;;;15.40;11.47;;;;;;;13.58;81.50;92344.81;5048567;28;20372;-75
2023/10/25 01:41:15;;;;;;;14.10;10.30;;;;;;;13.60;81.60;92350.53;5048965;28;20178;-75
2023/10/25 01:43:44;;;;;;;14.20;11.30;;;;;;;13.61;81.82;92335.56;5050423;28;20240;-75
2023/10/25 01:46:09;;;;;;;16.70;11.23;;;;;;;13.57;82.03;92366.84;5048558;28;20196;-75
2023/10/25 01:48:37;;;;;;;12.90;11.37;;;;;;;13.54;82.14;92372.72;5048672;28;20226;-75
2023/10/25 01:51:03;;;;;;;17.60;10.63;;;;;;;13.75;81.06;92378.19;5048865;28;20187;-75
2023/10/25 01:53:29;;;;;;;16.50;11.93;;;;;;;13.66;81.45;92380.81;5041830;28;20227;-75
2023/10/25 01:55:55;;;;;;;16.17;10.27;;;;;;;13.51;81.99;92377.81;5029133;28;20209;-75
2023/10/25 01:58:20;;;;;;;12.80;10.27;;;;;;;13.48;82.58;92373.16;5028310;28;21067;-75
2023/10/25 02:00:45;;;;;;;12.60;11.30;;;;;;;13.49;82.58;92388.59;5029882;28;20185;-75
2023/10/25 02:03:11;;;;;;;14.53;10.70;;;;;;;13.32;82.93;92380.63;5032340;28;20257;-75
2023/10/25 02:05:36;;;;;;;19.83;12.53;;;;;;;13.49;82.17;92393.06;5032948;28;20233;-75
2023/10/25 02:08:02;;;;;;;16.53;11.03;;;;;;;13.35;82.68;92389.75;5039297;28;20225;-75
2023/10/25 02:10:27;;;;;;;13.63;12.27;;;;;;;13.65;81.08;92389.72;5029898;28;20177;-75
2023/10/25 02:12:53;;;;;;;18.23;12.10;;;;;;;13.53;81.85;92397.41;5032940;28;20225;-75
2023/10/25 02:15:18;;;;;;;19.20;13.10;;;;;;;13.41;81.92;92378.81;5032523;28;20201;-75
2023/10/25 02:17:44;;;;;;;14.20;11.63;;;;;;;13.60;81.21;92382.03;5032471;28;21083;-75
2023/10/25 02:20:09;;;;;;;13.83;12.13;;;;;;;13.74;81.13;92371.41;5032543;28;20225;-75
2023/10/25 02:22:35;;;;;;;19.00;12.23;;;;;;;13.67;80.83;92356.09;5032524;28;20210;-75
2023/10/25 02:25:00;;;;;;;14.33;12.80;;;;;;;13.60;81.20;92355.78;5031790;28;20232;-75
2023/10/25 02:27:26;;;;;;;17.00;12.37;;;;;;;13.67;81.17;92374.47;5032264;28;20179;-75
2023/10/25 02:29:51;;;;;;;16.57;12.30;;;;;;;13.72;81.31;92379.59;5031699;28;20222;-75
2023/10/25 02:32:16;;;;;;;15.97;11.60;;;;;;;13.64;81.81;92377.69;5031653;28;20189;-75
2023/10/25 02:34:42;;;;;;;15.13;11.90;;;;;;;13.69;82.41;92369.72;5031632;28;20221;-75
2023/10/25 02:37:07;;;;;;;13.73;11.40;;;;;;;13.42;82.90;92343.66;5032101;28;20217;-75
2023/10/25 02:39:32;;;;;;;17.17;11.93;;;;;;;13.34;82.33;92314.78;5031453;28;20273;-75
2023/10/25 02:41:58;;;;;;;17.63;11.40;;;;;;;13.36;82.65;92307.38;5032571;28;20178;-75
2023/10/25 02:44:23;;;;;;;12.73;11.43;;;;;;;13.35;82.24;92296.13;5031220;28;20317;-75
2023/10/25 02:46:48;;;;;;;18.67;11.80;;;;;;;13.27;82.55;92277.72;5032001;28;20179;-75
2023/10/25 02:49:14;;;;;;;17.43;12.10;;;;;;;13.44;81.90;92273.34;5021212;28;20306;-75
2023/10/25 02:51:39;;;;;;;16.10;11.00;;;;;;;13.61;81.89;92283.09;5030891;28;20174;-75
2023/10/25 02:54:05;;;;;;;12.47;11.27;;;;;;;13.48;82.01;92284.75;5030189;28;20231;-75
2023/10/25 02:56:30;;;;;;;15.83;11.17;;;;;;;13.79;79.43;92277.59;5031694;28;20234;-75
2023/10/25 02:58:56;;;;;;;13.17;11.00;;;;;;;13.95;78.48;92249.06;5031534;28;20261;-75
2023/10/25 03:01:23;;;;;;;18.73;11.23;;;;;;;14.03;78.74;92249.09;5031544;28;20182;-75
2023/10/25 03:03:48;;;;;;;13.17;11.53;;;;;;;14.28;77.56;92250.97;5031035;28;20238;-75
2023/10/25 03:06:14;;;;;;;12.77;11.10;;;;;;;14.32;76.91;92245.84;5031709;28;20210;-75
2023/10/25 03:08:39;;;;;;;15.97;11.57;;;;;;;14.54;74.89;92255.44;5039287;28;20222;-75
2023/10/25 03:11:05;;;;;;;18.17;11.13;;;;;;;14.71;73.97;92247.53;5051260;28;20174;-75
2023/10/25 03:13:31;;;;;;;15.87;11.53;;;;;;;14.83;71.67;92237.16;5050621;28;20233;-75
2023/10/25 03:15:57;;;;;;;19.53;10.87;;;;;;;15.68;66.02;92252.66;5051289;28;20245;-75
2023/10/25 03:18:23;;;;;;;16.00;10.63;;;;;;;16.06;64.46;92245.47;5050427;28;20915;-75
2023/10/25 03:20:48;;;;;;;16.80;10.77;;;;;;;15.96;66.85;92240.56;5051181;28;20186;-75
2023/10/25 03:23:13;;;;;;;20.07;9.87;;;;;;;16.34;62.67;92248.34;5045449;28;20823;-75
2023/10/25 03:25:39;;;;;;;15.03;9.77;;;;;;;16.40;64.20;92253.13;5031346;28;20217;-75
2023/10/25 03:28:04;;;;;;;17.37;10.93;;;;;;;16.50;63.03;92236.94;5031252;28;20230;-75
2023/10/25 03:30:29;;;;;;;15.30;10.80;;;;;;;16.39;63.70;92227.84;5031224;28;20735;-75
2023/10/25 03:32:55;;;;;;;18.33;10.83;;;;;;;16.33;64.43;92238.91;5032805;28;20187;-75
2023/10/25 03:35:20;;;;;;;17.77;11.50;;;;;;;16.32;63.40;92243.41;5050939;28;20186;-75
2023/10/25 03:37:46;;;;;;;15.87;11.27;;;;;;;15.65;69.04;92234.84;5048726;28;20174;-75
2023/10/25 03:40:13;;;;;;;27.37;10.37;;;;;;;15.43;70.81;92248.28;5031260;28;20219;-75
2023/10/25 03:42:38;;;;;;;14.00;10.83;;;;;;;15.51;70.80;92255.34;5032001;28;20185;-75
2023/10/25 03:45:06;;;;;;;27.63;12.73;;;;;;;14.87;74.02;92248.56;5030243;28;20235;-76
2023/10/25 03:47:34;;;;;;;14.77;10.93;;;;;;;14.62;75.36;92255.44;5029056;28;20250;-82
2023/10/25 03:50:00;;;;;;;20.40;10.67;;;;;;;14.82;74.87;92235.63;5034878;28;20240;-81
2023/10/25 03:52:25;;;;;;;14.40;11.87;;;;;;;14.41;76.51;92260.53;5037347;28;20186;-82
2023/10/25 03:54:51;;;;;;;14.13;10.80;;;;;;;14.43;76.19;92242.63;5056174;28;20230;-80
2023/10/25 03:57:16;;;;;;;13.67;11.93;;;;;;;14.61;75.88;92266.25;5029459;28;20199;-79
2023/10/25 03:59:41;;;;;;;21.30;12.60;;;;;;;14.51;76.03;92261.31;5024559;28;20227;-80
2023/10/25 04:02:07;;;;;;;15.83;11.93;;;;;;;14.68;75.94;92263.94;5035691;28;20189;-74
2023/10/25 04:33:47;;;;;;;17.83;15.40;;;;;;;13.66;83.63;92231.28;5857054;22;21266;-82
2023/10/25 04:36:13;;;;;;;21.60;13.67;;;;;;;13.76;82.06;92233.59;5096707;28;20192;-78
2023/10/25 04:38:38;;;;;;;18.33;12.53;;;;;;;13.78;82.51;92218.34;5035847;28;20260;-76
2023/10/25 04:41:04;;;;;;;18.10;12.87;;;;;;;14.03;82.35;92228.09;5050227;28;20190;-81
2023/10/25 04:43:30;;;;;;;16.10;12.80;;;;;;;14.10;83.94;92215.25;5043954;28;20260;-78
2023/10/25 04:45:55;;;;;;;13.17;12.07;;;;;;;14.28;81.50;92210.81;5041745;28;20189;-76
2023/10/25 04:48:20;;;;;;;20.13;13.23;;;;;;;14.34;81.20;92201.69;5045753;28;20240;-76
2023/10/25 04:50:46;;;;;;;16.57;12.80;;;;;;;14.26;81.38;92215.59;5050201;28;20186;-76
2023/10/25 04:53:12;;;;;;;16.60;12.70;;;;;;;14.34;80.14;92199.06;5064720;28;20240;-75
2023/10/25 04:55:37;;;;;;;17.73;12.13;;;;;;;14.40;80.45;92192.56;5068654;28;20254;-76
2023/10/25 04:58:06;;;;;;;18.77;13.17;;;;;;;14.40;80.58;92193.34;5057056;28;20224;-76
2023/10/25 05:00:31;;;;;;;21.20;12.30;;;;;;;14.37;80.15;92175.59;5057195;28;20212;-79
2023/10/25 05:02:57;;;;;;;19.43;13.30;;;;;;;14.87;77.41;92175.75;5059202;28;20225;-79
2023/10/25 05:05:23;;;;;;;21.40;13.83;;;;;;;15.00;77.06;92171.41;5065976;28;20253;-79
2023/10/25 05:07:48;;;;;;;22.97;13.13;;;;;;;15.45;71.44;92159.28;5061878;28;20276;-80
2023/10/25 05:10:14;;;;;;;30.30;12.77;;;;;;;15.97;66.99;92171.78;5061233;28;20182;-77
2023/10/25 05:12:44;;;;;;;23.60;13.13;;;;;;;17.07;59.61;92179.00;5069259;28;20233;-78
2023/10/25 05:15:13;;;;;;;29.50;11.40;;;;;;;17.32;59.38;92180.56;5061076;28;20182;-76
2023/10/25 05:17:39;;;;;;;24.60;11.70;;;;;;;17.15;64.21;92201.88;5052085;28;20232;-77
2023/10/25 05:20:06;;;;;;;17.30;12.40;;;;;;;16.30;69.65;92229.78;5052334;28;20196;-78
2023/10/25 05:22:40;;;;;;;22.13;11.50;;;;;;;15.62;72.70;92203.91;5052703;28;20235;-78
2023/10/25 05:25:08;;;;;;;18.87;12.20;;;;;;;15.17;74.75;92221.28;5061177;28;20204;-79
2023/10/25 05:27:35;;;;;;;16.37;12.73;;;;;;;15.30;74.23;92215.81;5052752;28;20231;-80
2023/10/25 05:30:07;;;;;;;22.13;12.80;;;;;;;15.40;73.96;92212.84;5062869;28;20182;-77
2023/10/25 05:32:35;;;;;;;19.03;12.07;;;;;;;15.23;74.71;92202.38;5067945;28;20297;-82
2023/10/25 05:35:02;;;;;;;24.80;11.80;;;;;;;15.47;73.30;92207.09;5063634;28;20218;-81
2023/10/25 05:37:28;;;;;;;24.97;13.77;;;;;;;15.67;70.30;92207.13;5082726;28;20965;-79
2023/10/25 05:39:54;;;;;;;20.23;11.10;;;;;;;15.70;72.14;92218.91;5081298;28;20192;-78
2023/10/25 05:42:20;;;;;;;17.57;12.80;;;;;;;15.75;71.74;92205.56;5085214;28;20236;-77
2023/10/25 05:44:47;;;;;;;17.40;12.20;;;;;;;15.59;72.04;92213.22;5069624;28;20418;-77
2023/10/25 05:47:14;;;;;;;16.63;11.93;;;;;;;15.44;73.25;92219.03;5063240;28;20225;-77
2023/10/25 05:49:40;;;;;;;22.37;11.70;;;;;;;15.86;69.65;92209.34;5069726;28;20224;-78
2023/10/25 05:52:07;;;;;;;21.97;12.57;;;;;;;15.59;70.86;92165.09;5071378;28;20229;-78
2023/10/25 05:54:34;;;;;;;12.80;11.40;;;;;;;15.88;71.35;92191.38;5062742;28;20190;-79
2023/10/25 05:57:00;;;;;;;18.60;11.77;;;;;;;16.16;68.29;92192.41;5058816;28;20218;-76
2023/10/25 05:59:25;;;;;;;22.63;12.63;;;;;;;16.13;69.13;92200.16;5051168;28;20245;-78
2023/10/25 06:02:01;;;;;;;23.57;11.77;;;;;;;17.12;61.96;92213.81;5049094;28;20244;-77
2023/10/25 06:04:29;;;;;;;19.87;11.03;;;;;;;17.19;62.22;92223.84;5041347;28;20181;-77
2023/10/25 06:06:55;;;;;;;30.70;11.43;;;;;;;17.45;60.35;92222.47;5042138;28;20294;-78
2023/10/25 06:09:21;;;;;;;23.70;11.47;;;;;;;17.50;61.81;92213.56;5046915;28;20185;-76
2023/10/25 06:11:46;;;;;;;25.40;11.00;;;;;;;18.08;57.26;92239.50;5047350;28;20246;-77
2023/10/25 06:14:12;;;;;;;18.17;10.73;;;;;;;18.42;56.55;92248.81;5048207;28;20196;-79
2023/10/25 06:16:37;;;;;;;22.37;10.83;;;;;;;18.28;58.82;92237.81;5047248;28;20194;-78
2023/10/25 06:19:03;;;;;;;22.57;11.00;;;;;;;17.68;61.70;92235.25;5048027;28;20185;-78
2023/10/25 06:21:28;;;;;;;28.83;11.20;;;;;;;17.89;60.25;92230.59;5038203;28;20243;-79
2023/10/25 06:23:53;;;;;;;24.70;11.60;;;;;;;17.74;61.29;92210.16;5039987;28;20175;-78
2023/10/25 06:26:19;;;;;;;22.47;11.53;;;;;;;17.91;61.23;92202.75;5048956;28;20205;-79
2023/10/25 06:28:44;;;;;;;30.60;11.43;;;;;;;18.09;58.44;92216.47;5038610;28;20211;-80
2023/10/25 06:31:11;;;;;;;37.63;10.90;;;;;;;19.61;50.24;92203.56;5038961;28;20723;-79
2023/10/25 06:33:36;;;;;;;30.07;10.83;;;;;;;19.41;54.67;92247.72;5039054;28;20222;-79
2023/10/25 06:36:02;;;;;;;28.23;11.03;;;;;;;19.70;50.48;92233.31;5041122;28;20478;-80
2023/10/25 06:38:28;;;;;;;24.33;11.80;;;;;;;18.79;57.79;92229.84;5069483;28;20229;-79
2023/10/25 06:40:54;;;;;;;24.43;10.47;;;;;;;18.49;60.43;92227.88;5043930;28;20183;-78
2023/10/25 06:43:20;;;;;;;31.73;11.67;;;;;;;18.72;57.57;92218.31;5054937;28;20528;-79
2023/10/25 06:45:46;;;;;;;26.97;10.87;;;;;;;18.50;60.07;92238.13;5051341;28;20189;-78
2023/10/25 06:48:12;;;;;;;21.40;11.40;;;;;;;18.60;59.72;92239.53;5035514;28;20280;-79
2023/10/25 06:50:37;;;;;;;31.27;12.70;;;;;;;18.42;60.72;92239.00;5046340;28;20198;-77
2023/10/25 06:53:03;;;;;;;28.97;11.37;;;;;;;18.31;58.98;92260.91;5046202;28;20211;-79
2023/10/25 06:55:29;;;;;;;22.67;9.70;;;;;;;19.21;52.46;92247.94;5050032;28;20224;-79
2023/10/25 06:57:54;;;;;;;33.70;11.30;;;;;;;19.51;52.01;92231.34;5045551;28;20216;-79
2023/10/25 07:00:22;;;;;;;30.10;13.67;;;;;;;19.94;50.56;92260.34;5047732;28;20966;-79
2023/10/25 07:02:53;;;;;;;29.47;11.10;;;;;;;19.88;49.95;92250.38;5044141;28;20220;-79
2023/10/25 07:05:23;;;;;;;31.00;12.47;;;;;;;20.16;47.20;92267.72;5044526;28;20275;-80
2023/10/25 07:07:50;;;;;;;33.73;10.97;;;;;;;20.20;48.29;92236.00;5047800;28;20908;-78
2023/10/25 07:10:16;;;;;;;30.67;10.60;;;;;;;20.12;48.13;92235.03;5054282;28;20181;-79
2023/10/25 07:12:42;;;;;;;27.90;10.77;;;;;;;20.19;47.15;92226.47;5043647;28;20231;-79
2023/10/25 07:15:08;;;;;;;31.60;11.43;;;;;;;20.25;46.71;92252.38;5049614;28;20205;-79
2023/10/25 07:17:34;;;;;;;37.90;11.73;;;;;;;20.51;46.30;92257.88;5053268;28;20224;-80
2023/10/25 07:20:00;;;;;;;27.20;11.50;;;;;;;20.75;46.67;92264.06;5045106;28;20215;-80
2023/10/25 07:22:27;;;;;;;32.53;11.10;;;;;;;20.67;45.71;92260.47;5064265;28;20227;-78
2023/10/25 07:24:52;;;;;;;26.43;10.47;;;;;;;20.77;48.96;92254.63;5075638;28;20248;-79
2023/10/25 07:27:18;;;;;;;29.40;12.53;;;;;;;20.42;52.06;92262.59;5071748;28;20235;-79
2023/10/25 07:29:43;;;;;;;22.77;12.63;;;;;;;19.68;55.20;92270.72;5068410;28;20183;-78
2023/10/25 07:32:08;;;;;;;26.90;12.40;;;;;;;18.73;59.06;92270.09;5072332;28;20237;-79
2023/10/25 07:34:34;;;;;;;28.73;12.03;;;;;;;18.38;61.06;92250.59;5064206;28;20225;-77
2023/10/25 07:36:59;;;;;;;27.20;12.57;;;;;;;18.38;61.11;92253.25;5068139;28;20223;-76
2023/10/25 07:39:25;;;;;;;26.60;11.70;;;;;;;17.45;64.62;92272.63;5069488;28;20893;-78
2023/10/25 07:41:50;;;;;;;22.67;12.70;;;;;;;18.08;62.45;92294.19;5062916;28;20222;-79
2023/10/25 07:44:15;;;;;;;20.97;12.00;;;;;;;18.19;62.34;92288.16;5069993;28;20181;-79
2023/10/25 07:46:41;;;;;;;25.17;11.63;;;;;;;17.84;63.99;92270.47;5069814;28;20235;-79
2023/10/25 07:49:07;;;;;;;25.47;11.47;;;;;;;17.77;66.51;92259.66;5069804;28;20189;-79
2023/10/25 07:51:33;;;;;;;22.73;12.40;;;;;;;17.46;66.43;92297.91;5069206;28;20186;-78
2023/10/25 07:53:58;;;;;;;28.73;13.07;;;;;;;17.71;65.47;92290.03;5065386;28;20246;-77
2023/10/25 07:56:23;;;;;;;26.53;12.23;;;;;;;17.37;66.24;92273.44;5061832;28;20185;-78
2023/10/25 07:58:50;;;;;;;16.23;11.77;;;;;;;17.74;66.90;92289.38;5068831;28;20221;-79
2023/10/25 08:01:15;;;;;;;22.83;13.13;;;;;;;17.82;65.28;92296.41;5069749;28;20201;-78
2023/10/25 08:03:40;;;;;;;23.37;12.87;;;;;;;17.91;64.70;92283.88;5065952;28;20219;-79
2023/10/25 08:06:07;;;;;;;23.83;13.30;;;;;;;18.21;63.74;92283.28;5070009;28;20185;-79
2023/10/25 08:08:32;;;;;;;28.73;12.27;;;;;;;18.36;63.45;92276.56;5068946;28;20275;-79
2023/10/25 08:10:59;;;;;;;21.13;12.03;;;;;;;18.31;64.62;92295.28;5069657;28;20537;-79
2023/10/25 08:13:25;;;;;;;19.03;11.67;;;;;;;18.07;63.68;92327.00;5069039;28;20219;-78
2023/10/25 08:15:57;;;;;;;20.90;11.87;;;;;;;18.34;61.03;92321.81;5069760;28;20237;-79
2023/10/25 08:18:22;;;;;;;18.97;12.33;;;;;;;18.46;61.50;92334.28;5069074;28;20218;-78
2023/10/25 08:20:47;;;;;;;19.87;11.23;;;;;;;18.56;60.37;92307.38;5069294;28;20198;-79
2023/10/25 08:23:13;;;;;;;18.83;11.67;;;;;;;18.64;60.94;92299.31;5069355;28;20228;-79
2023/10/25 08:25:38;;;;;;;26.40;12.63;;;;;;;18.39;62.30;92299.69;5069500;28;20200;-79
2023/10/25 08:28:04;;;;;;;23.57;10.70;;;;;;;17.90;63.15;92329.88;5055413;28;20233;-79
2023/10/25 08:30:29;;;;;;;23.57;11.37;;;;;;;18.45;61.13;92309.72;5049839;28;20187;-79
2023/10/25 08:32:54;;;;;;;16.93;11.30;;;;;;;19.01;59.89;92303.38;5046445;28;20241;-78
2023/10/25 08:35:20;;;;;;;24.80;11.17;;;;;;;19.09;59.28;92320.22;5041180;28;20239;-78
2023/10/25 08:37:45;;;;;;;26.67;12.03;;;;;;;18.84;61.25;92332.00;5059932;28;20221;-79
2023/10/25 08:40:11;;;;;;;25.27;11.13;;;;;;;19.07;60.03;92311.84;5068123;28;20195;-79
2023/10/25 08:42:36;;;;;;;27.60;10.93;;;;;;;19.12;59.53;92316.91;5065341;28;20270;-78
2023/10/25 08:45:04;;;;;;;16.00;10.53;;;;;;;19.02;60.23;92333.25;5054120;28;20183;-79
2023/10/25 08:47:30;;;;;;;24.77;11.67;;;;;;;19.38;59.70;92322.53;5046884;28;20251;-79
2023/10/25 08:49:55;;;;;;;27.07;11.57;;;;;;;18.87;59.95;92320.72;5040190;28;20167;-79
2023/10/25 08:52:25;;;;;;;23.23;11.53;;;;;;;19.55;57.74;92332.81;5055474;28;20219;-79
2023/10/25 08:54:50;;;;;;;17.63;10.77;;;;;;;19.82;55.95;92337.28;5068598;28;20179;-79
2023/10/25 08:57:17;;;;;;;23.87;11.03;;;;;;;19.75;55.14;92331.81;5067369;28;20811;-77
2023/10/25 08:59:45;;;;;;;23.57;11.37;;;;;;;19.68;55.73;92344.88;5053020;28;20194;-79
2023/10/25 09:02:11;;;;;;;27.23;11.30;;;;;;;19.23;59.07;92336.47;5060422;28;20306;-79
2023/10/25 09:04:37;;;;;;;24.50;11.33;;;;;;;19.05;58.88;92330.69;5068858;28;20194;-79
2023/10/25 09:07:26;;;;;;;26.07;10.70;;;;;;;20.01;55.50;92318.84;5068454;28;20227;-79
2023/10/25 09:09:52;;;;;;;22.80;12.37;;;;;;;20.36;53.56;92309.06;5068492;28;20965;-78
2023/10/25 09:12:20;;;;;;;26.93;10.87;;;;;;;20.25;53.81;92318.66;5076346;28;20226;-79
2023/10/25 09:14:47;;;;;;;23.97;11.20;;;;;;;20.55;53.73;92329.56;5070688;28;20207;-79
2023/10/25 09:17:12;;;;;;;26.20;11.00;;;;;;;20.69;54.14;92320.03;5068140;28;20262;-79
2023/10/25 09:19:51;;;;;;;24.77;11.30;;;;;;;20.96;52.06;92321.00;5070734;28;20186;-80
2023/10/25 09:22:22;;;;;;;26.20;11.00;;;;;;;20.92;52.99;92322.03;5071829;28;20220;-79
2023/10/25 09:24:54;;;;;;;27.40;10.90;;;;;;;21.20;50.99;92306.69;5072356;28;20189;-79
2023/10/25 09:27:20;;;;;;;34.70;10.60;;;;;;;20.80;52.42;92327.44;5072452;28;20265;-79
2023/10/25 09:29:46;;;;;;;23.47;11.07;;;;;;;21.19;50.86;92327.16;5068474;28;20186;-79
2023/10/25 09:32:12;;;;;;;35.53;11.53;;;;;;;21.09;50.39;92335.66;5065367;28;20222;-79
2023/10/25 09:34:38;;;;;;;36.95;10.50;;;;;;;20.97;51.27;92311.91;5052407;28;20260;-78
2023/10/25 09:37:06;;;;;;;22.20;10.20;;;;;;;21.04;51.62;92332.53;5052508;28;20233;-79
2023/10/25 09:39:32;;;;;;;25.48;10.93;;;;;;;21.12;52.47;92319.03;5051329;28;20186;-79
2023/10/25 09:42:02;;;;;;;26.75;11.38;;;;;;;21.13;51.49;92309.19;5051610;28;20228;-79
2023/10/25 09:44:31;;;;;;;29.27;11.30;;;;;;;20.54;54.92;92320.06;5052315;28;20185;-79
2023/10/25 09:46:59;;;;;;;28.40;9.93;;;;;;;20.69;53.72;92321.91;5050853;28;20219;-79
2023/10/25 09:49:29;;;;;;;29.63;10.48;;;;;;;20.10;56.40;92300.88;5051604;28;20197;-79
2023/10/25 09:52:07;;;;;;;30.07;11.83;;;;;;;20.06;56.54;92310.59;5054239;28;20228;-79
2023/10/25 09:54:33;;;;;;;41.03;11.50;;;;;;;20.65;53.23;92303.25;5071821;28;20187;-79
2023/10/25 09:57:01;;;;;;;45.00;12.43;;;;;;;21.32;51.12;92286.06;5072067;28;21235;-79
2023/10/25 09:59:30;;;;;;;32.40;13.30;;;;;;;21.51;50.34;92287.91;5062891;28;20197;-80
2023/10/25 10:01:56;;;;;;;34.17;11.13;;;;;;;22.08;49.32;92298.38;5070691;28;20277;-79
2023/10/25 10:04:27;;;;;;;50.03;13.02;;;;;;;22.15;47.04;92275.31;5068853;28;20193;-80
2023/10/25 10:07:01;;;;;;;46.33;13.30;;;;;;;21.92;46.79;92284.44;5071833;28;20239;-79
2023/10/25 10:09:33;;;;;;;32.10;11.67;;;;;;;22.01;47.03;92271.66;5087583;28;20190;-80
2023/10/25 10:12:06;;;;;;;42.25;11.32;;;;;;;22.30;46.33;92276.31;5069383;28;20246;-78
2023/10/25 10:14:33;;;;;;;46.90;12.77;;;;;;;22.51;45.49;92279.28;5051530;28;20210;-80
2023/10/25 10:17:09;;;;;;;48.30;11.30;;;;;;;23.03;45.36;92244.59;5045728;28;20245;-80
2023/10/25 10:19:39;;;;;;;33.90;11.65;;;;;;;22.94;46.62;92262.72;5065847;28;20205;-80
2023/10/25 10:22:12;;;;;;;39.03;11.95;;;;;;;23.44;42.93;92266.75;5060836;28;20259;-79
2023/10/25 10:24:39;;;;;;;48.22;11.35;;;;;;;23.28;44.37;92266.97;5079399;28;20184;-80
2023/10/25 10:27:04;;;;;;;42.35;10.98;;;;;;;23.61;43.45;92258.19;5076080;28;20242;-80
2023/10/25 10:29:33;;;;;;;36.55;11.52;;;;;;;23.61;43.32;92266.19;5064149;28;20159;-77
2023/10/25 10:31:59;;;;;;;37.92;10.82;;;;;;;23.55;42.52;92255.06;5066487;28;20239;-79
2023/10/25 10:34:57;;;;;;;47.50;11.77;;;;;;;23.55;42.57;92248.97;5051635;28;20243;-80
2023/10/25 10:37:26;;;;;;;40.53;11.27;;;;;;;23.35;42.89;92237.75;5050076;28;20232;-78
2023/10/25 10:39:57;;;;;;;51.03;11.95;;;;;;;23.52;43.11;92255.03;5041920;28;20208;-79
2023/10/25 10:42:32;;;;;;;57.67;12.90;;;;;;;23.37;42.31;92243.47;5050551;28;20299;-79
2023/10/25 10:45:11;;;;;;;53.22;13.10;;;;;;;23.34;43.11;92238.88;5050174;28;20187;-80
2023/10/25 10:47:43;;;;;;;39.33;11.27;;;;;;;23.01;43.38;92246.06;5045031;28;20224;-80
2023/10/25 10:50:13;;;;;;;53.10;12.77;;;;;;;23.29;43.78;92241.88;5045177;28;20194;-78
2023/10/25 10:52:43;;;;;;;45.67;11.73;;;;;;;22.98;43.34;92220.19;5050739;28;20224;-80
2023/10/25 10:55:13;;;;;;;53.50;12.52;;;;;;;23.12;43.52;92226.44;5050497;28;20281;-79
2023/10/25 10:57:38;;;;;;;43.00;12.30;;;;;;;23.54;42.92;92215.44;5050646;28;20231;-82
2023/10/25 11:00:08;;;;;;;43.70;12.20;;;;;;;23.45;42.42;92220.31;5050362;28;20188;-81
2023/10/25 11:02:35;;;;;;;58.60;13.63;;;;;;;23.13;42.59;92205.91;5050865;28;20266;-80
2023/10/25 11:05:00;;;;;;;50.67;12.45;;;;;;;23.06;43.28;92219.91;5049047;28;20271;-77
2023/10/25 11:07:26;;;;;;;53.42;14.95;;;;;;;22.80;42.83;92203.25;5045570;28;20254;-80
2023/10/25 11:09:51;;;;;;;36.47;12.65;;;;;;;23.05;43.49;92210.38;5049021;28;20189;-80
2023/10/25 11:12:16;;;;;;;41.22;10.95;;;;;;;22.98;42.91;92199.66;5050094;28;20231;-77
2023/10/25 11:14:44;;;;;;;38.55;12.20;;;;;;;22.92;43.48;92209.09;5047503;28;20200;-80
2023/10/25 11:17:09;;;;;;;41.28;11.23;;;;;;;22.81;44.25;92210.88;5049772;28;20225;-79
2023/10/25 11:19:35;;;;;;;47.15;12.93;;;;;;;22.91;43.79;92214.78;5043599;28;20219;-80
2023/10/25 11:22:01;;;;;;;38.85;11.07;;;;;;;22.74;44.08;92218.75;5045805;28;20230;-78
2023/10/25 11:24:26;;;;;;;49.10;12.20;;;;;;;22.86;43.46;92220.44;5049050;28;20183;-79
2023/10/25 11:26:54;;;;;;;58.33;13.25;;;;;;;22.87;43.30;92216.63;5048002;28;20558;-79
2023/10/25 11:29:22;;;;;;;43.95;11.68;;;;;;;22.90;44.50;92200.69;5050186;28;20188;-77
2023/10/25 11:31:50;;;;;;;44.67;12.45;;;;;;;23.33;42.88;92221.34;5049479;28;20781;-80
2023/10/25 11:34:21;;;;;;;53.58;12.77;;;;;;;23.44;43.15;92202.81;5046545;28;20220;-81
2023/10/25 11:36:47;;;;;;;50.10;12.43;;;;;;;23.28;42.85;92218.25;5048350;28;20270;-81
2023/10/25 11:39:13;;;;;;;45.75;11.95;;;;;;;23.35;43.07;92208.44;5062612;28;20184;-80
2023/10/25 11:41:39;;;;;;;47.50;12.23;;;;;;;23.46;43.40;92203.97;5056008;28;20311;-79
2023/10/25 11:44:04;;;;;;;61.65;13.55;;;;;;;23.26;43.90;92199.19;5047737;28;20213;-80